Time;durP1;ratioP1;P1;durP2;ratioP2;P2;SDS_P1;SDS_P2;PMS_P1;PMS_P2;Temp;Humidity;BMP_temperature;BMP_pressure;BME280_temperature;BME280_humidity;BME280_pressure;Samples;Min_cycle;Max_cycle;Signal;HPM_P1;HPM_P2
2021/05/12 00:01:20;;;;;;;1.92;1.48;;;12.20;1.00;;;;;;4977846;28;20023;-78
2021/05/12 00:03:45;;;;;;;2.15;1.30;;;12.20;1.00;;;;;;4975906;28;20023;-77
2021/05/12 00:06:11;;;;;;;1.30;1.20;;;12.20;1.00;;;;;;4978647;28;20091;-77
2021/05/12 00:08:37;;;;;;;2.88;1.50;;;12.20;1.00;;;;;;4977583;28;20026;-77
2021/05/12 00:11:02;;;;;;;1.73;1.48;;;12.20;1.00;;;;;;4978030;28;20082;-76
2021/05/12 00:13:28;;;;;;;2.92;1.20;;;12.20;1.00;;;;;;4973762;28;20023;-76
2021/05/12 00:15:53;;;;;;;1.92;1.42;;;12.20;1.00;;;;;;4977104;28;20073;-77
2021/05/12 00:18:22;;;;;;;1.50;1.27;;;12.20;1.00;;;;;;4976015;28;20045;-77
2021/05/12 00:20:48;;;;;;;1.25;1.10;;;12.20;1.00;;;;;;4970299;28;20023;-77
2021/05/12 00:23:24;;;;;;;1.23;1.13;;;12.20;1.00;;;;;;4980771;28;20033;-77
2021/05/12 00:25:50;;;;;;;1.67;1.23;;;12.20;1.00;;;;;;4980603;28;20102;-77
2021/05/12 00:28:15;;;;;;;1.52;1.02;;;12.20;1.00;;;;;;4984652;28;20070;-77
2021/05/12 00:30:41;;;;;;;1.63;1.20;;;12.20;1.00;;;;;;4981168;28;20026;-77
2021/05/12 00:33:06;;;;;;;3.33;1.33;;;12.20;1.00;;;;;;4979330;28;20145;-77
2021/05/12 00:35:32;;;;;;;1.10;1.00;;;12.20;1.00;;;;;;4991719;28;20027;-76
2021/05/12 00:37:58;;;;;;;2.15;1.20;;;12.20;1.00;;;;;;4985126;28;20042;-77
2021/05/12 00:40:24;;;;;;;1.25;1.15;;;12.20;1.00;;;;;;4991550;28;20022;-77
2021/05/12 00:42:50;;;;;;;1.20;1.10;;;12.10;1.00;;;;;;4992952;28;20030;-77
2021/05/12 00:45:20;;;;;;;2.83;1.10;;;12.10;1.00;;;;;;4994663;28;20102;-76
2021/05/12 00:47:49;;;;;;;2.17;1.25;;;12.10;1.00;;;;;;4998553;28;20121;-78
2021/05/12 00:50:24;;;;;;;1.90;1.30;;;12.10;1.00;;;;;;4992245;28;20512;-76
2021/05/12 00:52:50;;;;;;;1.08;1.08;;;12.10;1.00;;;;;;4974223;28;20035;-76
2021/05/12 00:55:17;;;;;;;3.00;1.25;;;12.10;1.00;;;;;;4980255;28;20058;-77
2021/05/12 00:57:43;;;;;;;3.65;1.60;;;12.10;1.00;;;;;;4976721;28;20034;-76
2021/05/12 01:00:11;;;;;;;1.20;1.08;;;12.00;1.00;;;;;;4978920;28;20113;-77
2021/05/12 01:02:37;;;;;;;3.40;1.13;;;12.00;1.00;;;;;;5017322;23;20289;-71
2021/05/12 01:05:04;;;;;;;3.13;1.20;;;11.90;1.00;;;;;;5013904;28;20417;-71
2021/05/12 01:07:30;;;;;;;2.88;1.42;;;11.90;1.00;;;;;;5013828;28;20101;-73
2021/05/12 01:09:56;;;;;;;1.45;0.90;;;11.80;1.00;;;;;;5013815;28;20033;-71
2021/05/12 01:12:21;;;;;;;1.80;1.10;;;11.80;1.00;;;;;;5002392;28;20375;-71
2021/05/12 01:14:47;;;;;;;2.50;1.25;;;11.70;1.00;;;;;;4994172;28;20065;-71
2021/05/12 01:17:14;;;;;;;1.55;1.20;;;11.70;1.00;;;;;;4988808;28;20030;-71
2021/05/12 01:19:42;;;;;;;3.25;1.38;;;11.70;1.00;;;;;;4987406;28;20030;-71
2021/05/12 01:22:08;;;;;;;3.08;1.10;;;11.70;1.00;;;;;;4997927;28;20023;-72
2021/05/12 01:24:33;;;;;;;1.35;1.02;;;11.60;1.00;;;;;;4989427;28;20124;-73
2021/05/12 01:26:59;;;;;;;1.02;0.93;;;11.60;1.00;;;;;;4989146;28;20031;-71
2021/05/12 01:29:24;;;;;;;2.78;1.38;;;11.60;1.00;;;;;;4989647;28;20027;-71
2021/05/12 01:31:52;;;;;;;3.08;0.82;;;11.60;1.00;;;;;;4993599;28;20030;-71
2021/05/12 01:34:20;;;;;;;1.40;1.00;;;11.60;1.00;;;;;;4979652;28;20037;-71
2021/05/12 01:36:47;;;;;;;2.20;0.82;;;11.60;1.00;;;;;;4989288;28;20389;-71
2021/05/12 01:39:14;;;;;;;1.65;0.90;;;11.50;1.00;;;;;;4992488;28;20046;-71
2021/05/12 01:41:40;;;;;;;1.10;1.00;;;11.60;1.00;;;;;;4993689;28;20033;-71
2021/05/12 01:44:11;;;;;;;3.42;1.20;;;11.50;1.00;;;;;;4997658;28;20045;-71
2021/05/12 01:46:38;;;;;;;1.17;1.08;;;11.50;1.00;;;;;;4994777;28;20092;-71
2021/05/12 01:49:05;;;;;;;1.70;1.00;;;11.50;1.00;;;;;;4998351;28;20038;-71
2021/05/12 01:51:31;;;;;;;1.23;0.85;;;11.50;1.00;;;;;;4996033;28;20081;-71
2021/05/12 01:53:56;;;;;;;1.52;1.40;;;11.40;1.00;;;;;;5012750;28;20030;-71
2021/05/12 01:56:22;;;;;;;1.48;1.20;;;11.40;1.00;;;;;;4997633;28;20165;-71
2021/05/12 01:58:48;;;;;;;1.60;1.10;;;11.40;1.00;;;;;;4995667;28;20034;-71
2021/05/12 02:01:13;;;;;;;1.63;1.05;;;11.40;1.00;;;;;;5009551;28;20030;-71
2021/05/12 02:03:39;;;;;;;2.08;1.48;;;11.40;1.00;;;;;;4995172;28;20034;-71
2021/05/12 02:06:04;;;;;;;1.90;1.73;;;11.40;1.00;;;;;;4995707;28;20030;-72
2021/05/12 02:08:30;;;;;;;3.58;2.53;;;11.40;1.00;;;;;;4996996;28;20089;-71
2021/05/12 02:11:04;;;;;;;2.42;1.75;;;11.40;1.00;;;;;;5001163;28;20084;-71
2021/05/12 02:13:31;;;;;;;3.15;1.40;;;11.40;1.00;;;;;;5004749;28;20034;-71
2021/05/12 02:15:58;;;;;;;4.93;2.00;;;11.40;1.00;;;;;;5004758;28;20025;-71
2021/05/12 02:18:24;;;;;;;2.63;2.10;;;11.30;1.00;;;;;;4991560;28;20142;-71
2021/05/12 02:20:50;;;;;;;3.17;2.08;;;11.40;1.00;;;;;;4998261;28;20131;-72
2021/05/12 02:23:18;;;;;;;3.25;1.95;;;11.30;1.00;;;;;;5001922;28;20026;-71
2021/05/12 02:25:44;;;;;;;2.50;2.30;;;11.30;1.00;;;;;;5000942;28;20034;-71
2021/05/12 02:28:10;;;;;;;3.40;2.67;;;11.30;1.00;;;;;;4989548;28;20488;-71
2021/05/12 02:30:37;;;;;;;3.90;2.30;;;11.20;1.00;;;;;;4993959;28;20025;-71
2021/05/12 02:33:05;;;;;;;4.88;2.88;;;11.20;1.00;;;;;;4988419;28;20041;-70
2021/05/12 02:35:31;;;;;;;3.13;2.60;;;11.20;1.00;;;;;;4987627;28;20031;-71
2021/05/12 02:37:56;;;;;;;3.22;2.92;;;11.20;1.00;;;;;;4988608;28;20478;-71
2021/05/12 02:40:23;;;;;;;2.95;2.55;;;11.30;1.00;;;;;;5003944;28;20026;-71
2021/05/12 02:42:50;;;;;;;4.10;3.08;;;11.30;1.00;;;;;;4991554;28;20451;-71
2021/05/12 02:45:17;;;;;;;5.30;3.17;;;11.20;1.00;;;;;;4999574;28;20494;-71
2021/05/12 02:47:56;;;;;;;3.30;2.90;;;11.30;1.00;;;;;;4998338;28;20035;-71
2021/05/12 02:50:22;;;;;;;3.78;3.10;;;11.20;1.00;;;;;;5004971;28;20025;-71
2021/05/12 02:52:48;;;;;;;3.75;3.05;;;11.20;1.00;;;;;;5004429;28;20027;-70
2021/05/12 02:55:14;;;;;;;3.50;3.20;;;11.20;1.00;;;;;;4994791;28;20037;-71
2021/05/12 02:57:39;;;;;;;4.65;3.28;;;11.20;1.00;;;;;;4988492;28;20039;-71
2021/05/12 03:00:06;;;;;;;4.88;3.50;;;11.20;1.00;;;;;;4996080;28;20041;-71
2021/05/12 03:02:32;;;;;;;4.22;3.22;;;11.20;1.00;;;;;;4997228;28;20026;-70
2021/05/12 03:04:57;;;;;;;6.18;4.57;;;11.20;1.00;;;;;;4989232;28;20371;-71
2021/05/12 03:07:23;;;;;;;5.82;3.75;;;11.20;1.00;;;;;;4992570;28;20076;-71
2021/05/12 03:09:48;;;;;;;6.57;3.80;;;11.20;1.00;;;;;;4990194;28;20414;-70
2021/05/12 03:12:14;;;;;;;4.43;3.45;;;11.20;1.00;;;;;;4992126;28;20030;-70
2021/05/12 03:14:39;;;;;;;5.10;3.45;;;11.20;1.00;;;;;;4995789;28;20070;-71
2021/05/12 03:17:05;;;;;;;5.50;4.35;;;11.20;1.00;;;;;;5001971;28;20033;-71
2021/05/12 03:19:30;;;;;;;8.15;5.55;;;11.20;1.00;;;;;;4996723;28;20049;-71
2021/05/12 03:21:57;;;;;;;6.53;4.63;;;11.20;1.00;;;;;;4987706;28;20031;-71
2021/05/12 03:24:23;;;;;;;6.13;4.55;;;11.20;1.00;;;;;;5006944;28;20056;-71
2021/05/12 03:26:49;;;;;;;6.45;4.63;;;11.20;1.00;;;;;;4986134;28;20045;-71
2021/05/12 03:29:14;;;;;;;5.88;5.20;;;11.20;1.00;;;;;;4990616;28;20030;-72
2021/05/12 03:31:40;;;;;;;8.50;5.65;;;11.20;1.00;;;;;;5004951;28;20041;-71
2021/05/12 03:34:06;;;;;;;7.30;5.55;;;11.20;1.00;;;;;;4998578;28;20033;-71
2021/05/12 03:36:32;;;;;;;7.25;6.03;;;11.20;1.00;;;;;;5000339;28;20076;-71
2021/05/12 03:38:58;;;;;;;7.03;5.38;;;11.20;1.00;;;;;;5001259;28;20026;-72
2021/05/12 03:41:24;;;;;;;6.93;5.45;;;11.20;1.00;;;;;;4995342;28;20498;-71
2021/05/12 03:43:49;;;;;;;6.57;5.93;;;11.20;1.00;;;;;;4989388;28;20027;-71
2021/05/12 03:46:15;;;;;;;10.30;5.75;;;11.20;1.00;;;;;;4998608;28;20037;-70
2021/05/12 03:48:41;;;;;;;8.50;6.22;;;11.20;1.00;;;;;;5007444;28;20028;-70
2021/05/12 03:51:06;;;;;;;8.18;6.10;;;11.20;1.00;;;;;;5007594;28;20035;-72
2021/05/12 03:53:32;;;;;;;7.93;7.10;;;11.20;1.00;;;;;;5003376;28;20037;-71
2021/05/12 03:55:58;;;;;;;9.18;6.90;;;11.30;1.00;;;;;;4997576;28;20042;-71
2021/05/12 03:58:23;;;;;;;8.98;6.75;;;11.30;1.00;;;;;;5000582;28;20025;-71
2021/05/12 04:00:49;;;;;;;10.43;6.95;;;11.30;1.00;;;;;;4996501;28;20027;-70
2021/05/12 04:03:15;;;;;;;10.70;6.93;;;11.30;1.00;;;;;;4994387;28;20517;-72
2021/05/12 04:05:41;;;;;;;10.93;7.35;;;11.30;1.00;;;;;;4998927;28;20018;-72
2021/05/12 04:08:06;;;;;;;11.20;6.93;;;11.30;1.00;;;;;;5013649;28;20030;-73
2021/05/12 04:10:32;;;;;;;7.88;6.57;;;11.30;1.00;;;;;;4998048;28;20030;-71
2021/05/12 04:12:59;;;;;;;13.65;7.00;;;11.30;1.00;;;;;;4997413;28;20037;-71
2021/05/12 04:15:25;;;;;;;10.80;6.72;;;11.40;1.00;;;;;;4991411;28;20026;-72
2021/05/12 04:17:51;;;;;;;21.70;7.55;;;11.40;1.00;;;;;;5003416;28;20026;-72
2021/05/12 04:20:19;;;;;;;10.50;6.55;;;11.30;1.00;;;;;;4993473;28;20061;-71
2021/05/12 04:22:45;;;;;;;8.30;6.95;;;11.30;1.00;;;;;;4989881;28;20518;-71
2021/05/12 04:25:17;;;;;;;11.43;6.95;;;11.30;1.00;;;;;;4995013;28;20178;-71
2021/05/12 04:27:43;;;;;;;9.02;6.28;;;11.40;1.00;;;;;;4986905;28;20023;-71
2021/05/12 04:30:10;;;;;;;9.20;6.72;;;11.40;1.00;;;;;;4993082;28;20089;-70
2021/05/12 04:32:36;;;;;;;13.05;7.00;;;11.40;1.00;;;;;;4990467;28;20053;-71
2021/05/12 04:35:02;;;;;;;7.78;6.03;;;11.40;1.00;;;;;;5010674;28;20255;-72
2021/05/12 04:37:27;;;;;;;11.48;7.45;;;11.40;1.00;;;;;;5005726;28;20118;-72
2021/05/12 04:39:53;;;;;;;10.15;6.55;;;11.40;1.00;;;;;;4990384;28;20122;-71
2021/05/12 04:42:19;;;;;;;8.88;6.10;;;11.40;1.00;;;;;;4991134;28;20480;-71
2021/05/12 04:44:44;;;;;;;11.85;7.13;;;11.50;1.00;;;;;;5001483;28;20027;-71
2021/05/12 04:47:12;;;;;;;8.35;6.35;;;11.50;1.00;;;;;;4997741;28;20030;-71
2021/05/12 04:49:37;;;;;;;10.77;6.15;;;11.50;1.00;;;;;;5009375;28;20025;-71
2021/05/12 04:52:03;;;;;;;8.35;6.45;;;11.50;1.00;;;;;;5018051;28;20038;-72
2021/05/12 04:54:28;;;;;;;8.07;6.25;;;11.50;1.00;;;;;;5001172;28;20034;-71
2021/05/12 04:56:54;;;;;;;8.45;6.05;;;11.50;1.00;;;;;;5000303;28;20030;-71
2021/05/12 04:59:20;;;;;;;6.20;5.45;;;11.60;1.00;;;;;;4995576;28;20082;-71
2021/05/12 05:01:46;;;;;;;6.40;4.82;;;11.50;1.00;;;;;;4987399;28;20022;-71
2021/05/12 05:04:13;;;;;;;7.85;5.30;;;11.50;1.00;;;;;;5003150;28;20030;-71
2021/05/12 05:06:38;;;;;;;6.28;4.85;;;11.50;1.00;;;;;;5012309;28;20022;-71
2021/05/12 05:09:06;;;;;;;10.57;6.45;;;11.40;1.00;;;;;;5009253;28;20026;-71
2021/05/12 05:11:32;;;;;;;6.10;4.90;;;11.50;1.00;;;;;;5003375;28;20065;-71
2021/05/12 05:13:58;;;;;;;6.22;5.63;;;11.50;1.00;;;;;;4994233;28;20061;-71
2021/05/12 05:16:23;;;;;;;8.20;5.25;;;11.50;1.00;;;;;;5000172;28;20122;-71
2021/05/12 05:18:51;;;;;;;5.57;4.28;;;11.50;1.00;;;;;;4997889;28;20026;-71
2021/05/12 05:21:17;;;;;;;5.53;3.92;;;11.50;1.00;;;;;;4997510;28;20025;-71
2021/05/12 05:23:43;;;;;;;7.05;4.55;;;11.50;1.00;;;;;;5013287;28;20028;-69
2021/05/12 05:26:09;;;;;;;5.95;4.13;;;11.50;1.00;;;;;;5011399;28;20022;-71
2021/05/12 05:28:34;;;;;;;4.63;3.70;;;11.50;1.00;;;;;;5014303;28;20026;-70
2021/05/12 05:31:00;;;;;;;9.90;4.30;;;11.50;1.00;;;;;;5008332;28;20061;-70
2021/05/12 05:33:25;;;;;;;4.85;3.65;;;11.50;1.00;;;;;;4994350;28;20038;-70
2021/05/12 05:35:51;;;;;;;4.50;3.75;;;11.50;1.00;;;;;;4994377;28;20459;-72
2021/05/12 05:38:16;;;;;;;4.05;3.53;;;11.50;1.00;;;;;;4993337;28;20049;-71
2021/05/12 05:40:42;;;;;;;5.72;3.50;;;11.60;1.00;;;;;;5002568;28;20046;-72
2021/05/12 05:43:09;;;;;;;3.90;3.05;;;11.50;1.00;;;;;;4994096;28;20065;-70
2021/05/12 05:45:34;;;;;;;4.60;3.08;;;11.60;1.00;;;;;;4979064;28;20432;-71
2021/05/12 05:48:00;;;;;;;8.90;3.83;;;11.60;1.00;;;;;;4981403;28;20113;-71
2021/05/12 05:50:26;;;;;;;4.40;3.13;;;11.60;1.00;;;;;;5001217;28;20524;-70
2021/05/12 05:52:56;;;;;;;4.53;3.13;;;11.50;1.00;;;;;;5002310;28;20026;-71
2021/05/12 05:55:22;;;;;;;4.97;2.78;;;11.50;1.00;;;;;;4993877;28;20524;-70
2021/05/12 05:57:50;;;;;;;6.55;2.83;;;11.50;1.00;;;;;;5016267;28;20445;-72
2021/05/12 06:00:17;;;;;;;3.70;2.65;;;11.50;1.00;;;;;;4996262;28;20367;-71
2021/05/12 06:02:43;;;;;;;4.72;2.95;;;11.60;1.00;;;;;;5000762;28;20026;-73
2021/05/12 06:05:09;;;;;;;5.32;2.72;;;11.60;1.00;;;;;;4999398;28;20552;-70
2021/05/12 06:07:36;;;;;;;6.20;2.85;;;11.60;1.00;;;;;;4992753;28;20033;-71
2021/05/12 06:10:02;;;;;;;7.18;3.05;;;11.60;1.00;;;;;;5006499;28;20026;-72
2021/05/12 06:12:27;;;;;;;4.68;2.35;;;11.60;1.00;;;;;;4998026;28;20436;-70
2021/05/12 06:14:53;;;;;;;3.42;2.45;;;11.60;1.00;;;;;;4997846;28;20100;-73
2021/05/12 06:17:18;;;;;;;4.15;2.30;;;11.60;1.00;;;;;;4985557;28;20113;-71
2021/05/12 06:19:44;;;;;;;3.33;2.40;;;11.60;1.00;;;;;;4985104;28;20158;-71
2021/05/12 06:22:09;;;;;;;3.90;2.45;;;11.60;1.00;;;;;;5008600;28;20037;-72
2021/05/12 06:24:35;;;;;;;4.15;3.08;;;11.70;1.00;;;;;;4999150;28;20030;-71
2021/05/12 06:27:02;;;;;;;2.67;2.22;;;11.70;1.00;;;;;;4991335;28;20046;-71
2021/05/12 06:29:28;;;;;;;2.97;1.98;;;11.70;1.00;;;;;;5000655;28;20030;-71
2021/05/12 06:31:53;;;;;;;5.40;2.38;;;11.80;1.00;;;;;;5012702;28;20038;-70
2021/05/12 06:34:19;;;;;;;6.43;2.95;;;11.80;1.00;;;;;;4989456;28;20022;-72
2021/05/12 06:36:44;;;;;;;5.10;3.28;;;11.80;1.00;;;;;;5003738;28;20454;-71
2021/05/12 06:39:10;;;;;;;3.05;2.35;;;11.80;1.00;;;;;;4990642;28;20034;-70
2021/05/12 06:41:36;;;;;;;6.60;3.20;;;11.80;1.00;;;;;;4996499;28;20482;-71
2021/05/12 06:44:02;;;;;;;4.35;2.40;;;11.90;1.00;;;;;;4992592;28;20021;-70
2021/05/12 06:46:28;;;;;;;4.78;2.30;;;11.90;1.00;;;;;;4997972;28;20092;-72
2021/05/12 06:48:53;;;;;;;6.78;2.58;;;11.90;1.00;;;;;;5007622;28;20025;-71
2021/05/12 06:51:19;;;;;;;3.90;1.83;;;11.90;1.00;;;;;;4990622;28;20034;-71
2021/05/12 06:53:45;;;;;;;5.78;1.90;;;11.90;1.00;;;;;;4993916;28;20076;-71
2021/05/12 06:56:11;;;;;;;3.45;1.85;;;12.00;1.00;;;;;;4988382;28;20034;-71
2021/05/12 06:58:40;;;;;;;3.70;2.10;;;12.00;1.00;;;;;;4987898;28;20058;-72
2021/05/12 07:01:08;;;;;;;5.57;2.33;;;12.10;1.00;;;;;;4998929;28;20405;-72
2021/05/12 07:03:33;;;;;;;3.28;2.00;;;12.10;1.00;;;;;;4986207;28;20569;-71
2021/05/12 07:06:00;;;;;;;3.08;1.77;;;12.20;1.00;;;;;;4989695;28;20314;-71
2021/05/12 07:08:26;;;;;;;5.95;1.88;;;12.10;1.00;;;;;;4994714;28;20033;-71
2021/05/12 07:10:51;;;;;;;6.80;2.78;;;12.20;1.00;;;;;;4998655;28;20471;-72
2021/05/12 07:13:18;;;;;;;6.00;2.25;;;12.20;1.00;;;;;;5003664;28;20587;-72
2021/05/12 07:15:43;;;;;;;2.10;1.90;;;12.20;1.00;;;;;;5003616;28;20015;-71
2021/05/12 07:18:09;;;;;;;7.55;2.40;;;12.10;1.00;;;;;;4995932;28;20386;-72
2021/05/12 07:20:35;;;;;;;4.10;2.35;;;12.10;1.00;;;;;;4994361;28;20027;-71
2021/05/12 07:23:10;;;;;;;3.08;2.08;;;12.10;1.00;;;;;;4998613;28;20026;-71
2021/05/12 07:25:37;;;;;;;2.85;2.45;;;12.10;1.00;;;;;;4989892;28;20031;-71
2021/05/12 07:28:04;;;;;;;4.35;1.63;;;12.10;1.00;;;;;;5009271;28;20037;-70
2021/05/12 07:30:30;;;;;;;3.72;1.75;;;12.10;1.00;;;;;;4996673;28;20062;-71
2021/05/12 07:32:56;;;;;;;6.18;2.10;;;12.10;1.00;;;;;;4995879;28;20708;-71
2021/05/12 07:35:22;;;;;;;3.70;2.22;;;12.00;1.00;;;;;;4995432;28;20053;-71
2021/05/12 07:37:47;;;;;;;3.88;2.10;;;12.10;1.00;;;;;;4989336;28;20508;-71
2021/05/12 07:40:14;;;;;;;3.00;2.38;;;12.00;1.00;;;;;;4995662;28;20022;-71
2021/05/12 07:42:43;;;;;;;6.32;2.20;;;12.00;1.00;;;;;;4993223;28;20034;-72
2021/05/12 07:45:11;;;;;;;4.28;2.03;;;11.90;1.00;;;;;;4995890;28;20018;-71
2021/05/12 07:47:36;;;;;;;3.03;2.10;;;11.80;1.00;;;;;;5008019;28;20022;-71
2021/05/12 07:50:04;;;;;;;3.55;2.20;;;11.80;1.00;;;;;;5011817;28;20560;-71
2021/05/12 07:52:29;;;;;;;4.88;2.60;;;11.90;1.00;;;;;;4992599;28;20408;-72
2021/05/12 07:54:55;;;;;;;2.55;2.08;;;11.80;1.00;;;;;;5010595;28;20112;-71
2021/05/12 07:57:21;;;;;;;3.45;2.03;;;11.80;1.00;;;;;;5004921;28;20402;-72
2021/05/12 07:59:46;;;;;;;3.35;2.05;;;11.80;1.00;;;;;;4997086;28;20062;-71
2021/05/12 08:02:12;;;;;;;2.70;2.20;;;11.80;1.00;;;;;;4993043;28;20045;-71
2021/05/12 08:04:37;;;;;;;2.30;1.98;;;11.70;1.00;;;;;;4999003;28;20030;-72
2021/05/12 08:07:04;;;;;;;2.03;1.70;;;11.70;1.00;;;;;;4995319;28;20038;-71
2021/05/12 08:09:30;;;;;;;4.53;2.10;;;11.70;1.00;;;;;;5007922;28;20023;-71
2021/05/12 08:11:55;;;;;;;3.83;2.20;;;11.80;1.00;;;;;;4996646;28;20065;-71
2021/05/12 08:14:21;;;;;;;3.83;2.40;;;11.90;1.00;;;;;;5001621;28;20685;-72
2021/05/12 08:16:46;;;;;;;4.72;3.28;;;11.80;1.00;;;;;;4997094;28;20034;-72
2021/05/12 08:19:13;;;;;;;2.25;1.77;;;11.90;1.00;;;;;;5014810;28;20069;-72
2021/05/12 08:21:39;;;;;;;2.80;1.98;;;12.00;1.00;;;;;;5002127;28;20482;-72
2021/05/12 08:24:05;;;;;;;3.20;1.90;;;11.90;1.00;;;;;;5004873;28;20032;-72
2021/05/12 08:26:31;;;;;;;3.42;1.77;;;11.80;1.00;;;;;;5008726;28;20137;-72
2021/05/12 08:29:03;;;;;;;2.97;2.42;;;11.90;1.00;;;;;;5035474;28;20049;-72
2021/05/12 08:31:30;;;;;;;6.22;2.08;;;12.20;1.00;;;;;;5014510;28;20034;-70
2021/05/12 08:33:55;;;;;;;4.30;1.90;;;12.30;1.00;;;;;;5033819;28;20053;-72
2021/05/12 08:36:21;;;;;;;4.43;2.03;;;12.30;1.00;;;;;;5000895;28;20030;-72
2021/05/12 08:38:48;;;;;;;6.55;2.10;;;12.20;1.00;;;;;;5004173;28;20390;-71
2021/05/12 08:41:15;;;;;;;6.95;2.10;;;12.40;1.00;;;;;;5006155;28;20042;-72
2021/05/12 08:43:42;;;;;;;3.70;1.58;;;12.30;1.00;;;;;;5005913;28;20029;-71
2021/05/12 08:46:09;;;;;;;4.70;1.98;;;12.40;1.00;;;;;;5018772;28;20086;-75
2021/05/12 08:48:37;;;;;;;4.82;1.98;;;12.50;1.00;;;;;;5012319;28;20049;-77
2021/05/12 08:51:05;;;;;;;3.85;2.10;;;12.80;1.00;;;;;;4989655;28;20026;-75
2021/05/12 08:53:32;;;;;;;4.70;1.88;;;12.70;1.00;;;;;;5012321;28;20022;-75
2021/05/12 08:55:59;;;;;;;2.55;1.70;;;12.60;1.00;;;;;;5014685;28;20019;-75
2021/05/12 08:58:26;;;;;;;2.85;1.52;;;12.90;1.00;;;;;;5009134;28;20034;-75
2021/05/12 09:00:52;;;;;;;2.70;2.35;;;13.00;99.90;;;;;;5018673;28;20006;-76
2021/05/12 09:03:18;;;;;;;2.22;1.73;;;13.30;99.90;;;;;;5009319;28;20050;-76
2021/05/12 09:05:44;;;;;;;5.40;1.67;;;13.40;99.90;;;;;;5004846;28;20026;-76
2021/05/12 09:08:09;;;;;;;2.58;1.50;;;13.50;99.90;;;;;;5003066;28;20027;-75
2021/05/12 09:10:35;;;;;;;2.55;1.60;;;13.50;99.90;;;;;;5002958;28;20049;-76
2021/05/12 09:13:02;;;;;;;4.75;2.13;;;13.30;99.90;;;;;;4994478;28;20126;-77
2021/05/12 09:15:30;;;;;;;6.25;1.70;;;13.50;99.90;;;;;;5004893;28;20125;-78
2021/05/12 09:18:00;;;;;;;3.45;1.95;;;13.20;99.90;;;;;;5004290;28;20041;-76
2021/05/12 09:20:52;;;;;;;5.60;2.03;;;13.50;99.90;;;;;;5002438;28;20023;-75
2021/05/12 09:23:19;;;;;;;4.57;2.80;;;13.30;99.90;;;;;;4984981;28;20034;-77
2021/05/12 09:25:57;;;;;;;4.25;2.13;;;13.30;99.90;;;;;;4988308;28;20030;-77
2021/05/12 09:28:28;;;;;;;3.05;1.80;;;13.10;99.90;;;;;;4986766;28;20050;-76
2021/05/12 09:31:08;;;;;;;4.22;1.80;;;13.30;99.90;;;;;;5014230;28;20026;-76
2021/05/12 09:33:38;;;;;;;2.77;1.50;;;13.00;99.90;;;;;;4997257;28;20026;-77
2021/05/12 09:36:04;;;;;;;3.58;1.40;;;13.20;99.90;;;;;;5006593;28;20026;-75
2021/05/12 09:38:31;;;;;;;4.03;1.80;;;13.10;99.90;;;;;;4999694;28;20087;-76
2021/05/12 09:41:04;;;;;;;5.03;2.35;;;13.20;99.90;;;;;;5006538;28;20026;-76
2021/05/12 09:43:32;;;;;;;3.15;2.08;;;13.10;99.90;;;;;;5007524;28;20026;-76
2021/05/12 09:46:17;;;;;;;2.80;1.80;;;13.30;99.90;;;;;;5002742;28;20083;-76
2021/05/12 09:48:59;;;;;;;6.15;1.98;;;13.40;99.90;;;;;;4998528;28;20053;-77
2021/05/12 09:51:26;;;;;;;3.90;1.80;;;13.30;99.90;;;;;;4992177;28;20421;-76
2021/05/12 09:54:00;;;;;;;4.82;1.95;;;13.50;99.90;;;;;;5001913;28;20076;-77
2021/05/12 09:56:36;;;;;;;3.17;1.80;;;13.30;99.90;;;;;;5000813;28;20038;-75
2021/05/12 09:59:08;;;;;;;3.38;1.63;;;13.30;99.90;;;;;;4992364;28;20394;-76
2021/05/12 10:01:57;;;;;;;6.00;1.80;;;13.50;99.90;;;;;;5001547;28;20058;-76
2021/05/12 10:04:28;;;;;;;3.45;1.63;;;13.50;99.90;;;;;;5026743;28;20056;-75
2021/05/12 10:06:58;;;;;;;4.53;1.73;;;13.50;99.90;;;;;;5009501;28;20066;-75
2021/05/12 10:09:26;;;;;;;3.90;1.90;;;13.20;99.90;;;;;;5020368;28;20018;-78
2021/05/12 10:12:04;;;;;;;4.38;1.92;;;13.10;99.90;;;;;;4999772;28;20022;-72
2021/05/12 10:14:33;;;;;;;2.85;1.83;;;13.10;99.90;;;;;;4993186;28;20121;-71
2021/05/12 10:16:58;;;;;;;4.88;2.38;;;13.10;99.90;;;;;;4996313;28;20107;-72
2021/05/12 10:19:24;;;;;;;2.63;1.75;;;13.30;99.90;;;;;;4988473;28;20575;-72
2021/05/12 10:21:50;;;;;;;3.97;1.98;;;13.50;99.90;;;;;;4990314;28;20019;-72
2021/05/12 10:24:16;;;;;;;4.22;2.17;;;13.60;99.90;;;;;;4994843;28;20206;-72
2021/05/12 10:26:45;;;;;;;3.45;1.75;;;13.70;99.90;;;;;;5000359;28;20029;-72
2021/05/12 10:29:15;;;;;;;3.60;1.95;;;13.30;99.90;;;;;;4999657;28;20065;-71
2021/05/12 10:31:41;;;;;;;3.90;1.77;;;13.20;99.90;;;;;;5004862;28;20053;-71
2021/05/12 10:34:06;;;;;;;5.05;1.88;;;13.10;99.90;;;;;;5001604;28;20061;-70
2021/05/12 10:36:32;;;;;;;4.15;1.70;;;13.30;99.90;;;;;;4996088;28;20080;-71
2021/05/12 10:39:03;;;;;;;5.95;2.03;;;13.10;99.90;;;;;;5004985;28;20521;-71
2021/05/12 10:41:48;;;;;;;5.15;1.88;;;13.10;99.90;;;;;;5005571;28;20504;-71
2021/05/12 10:44:22;;;;;;;3.97;1.77;;;13.10;99.90;;;;;;5001191;28;20038;-70
2021/05/12 10:47:10;;;;;;;3.33;1.42;;;13.20;99.90;;;;;;4998688;28;20061;-70
2021/05/12 10:49:36;;;;;;;2.40;2.08;;;13.10;99.90;;;;;;5012602;28;20276;-72
2021/05/12 10:52:07;;;;;;;3.75;2.10;;;12.80;99.90;;;;;;5012237;28;20026;-72
2021/05/12 10:54:44;;;;;;;4.22;2.10;;;12.90;99.90;;;;;;5001519;28;20030;-71
2021/05/12 10:57:11;;;;;;;3.72;2.38;;;12.90;99.90;;;;;;4993449;28;20034;-71
2021/05/12 10:59:41;;;;;;;8.80;2.47;;;12.90;99.90;;;;;;5005493;28;20057;-72
2021/05/12 11:02:07;;;;;;;5.53;1.83;;;12.90;99.90;;;;;;5001074;28;20081;-72
2021/05/12 11:04:33;;;;;;;2.83;2.22;;;13.00;99.90;;;;;;4994080;28;20057;-72
2021/05/12 11:07:01;;;;;;;6.38;2.10;;;13.00;99.90;;;;;;5008249;28;20066;-72
2021/05/12 11:09:43;;;;;;;5.38;1.60;;;13.20;99.90;;;;;;5000749;28;20030;-73
2021/05/12 11:12:10;;;;;;;4.97;1.92;;;13.40;99.90;;;;;;4992561;28;20030;-73
2021/05/12 11:14:38;;;;;;;6.28;2.25;;;13.40;99.90;;;;;;4999275;28;20481;-73
2021/05/12 11:17:15;;;;;;;2.47;1.92;;;13.40;99.90;;;;;;5004187;28;20035;-73
2021/05/12 11:19:41;;;;;;;2.65;1.83;;;13.30;99.90;;;;;;4998679;28;20022;-75
2021/05/12 11:33:33;;;;;;;3.10;1.60;;;13.60;99.90;;;;;;4991301;28;20049;-74
2021/05/12 11:38:33;;;;;;;3.75;2.53;;;13.80;99.90;;;;;;4990350;28;20045;-73
2021/05/12 11:41:06;;;;;;;4.47;1.63;;;14.00;99.90;;;;;;5026649;28;20102;-73
2021/05/12 11:43:42;;;;;;;4.53;1.80;;;14.00;99.90;;;;;;5009222;28;20153;-75
2021/05/12 11:46:13;;;;;;;4.05;2.33;;;14.00;99.90;;;;;;4985757;28;20027;-73
2021/05/12 11:48:42;;;;;;;3.45;1.63;;;14.00;99.90;;;;;;4997619;28;20018;-73
2021/05/12 11:51:08;;;;;;;4.97;1.88;;;13.90;99.90;;;;;;5010425;28;20118;-73
2021/05/12 11:53:36;;;;;;;2.50;1.42;;;14.00;99.90;;;;;;5015416;28;20029;-73
2021/05/12 11:56:02;;;;;;;5.40;2.08;;;14.20;99.90;;;;;;5011174;28;20480;-73
2021/05/12 11:58:31;;;;;;;3.65;2.00;;;14.10;99.90;;;;;;4998482;28;20074;-73
2021/05/12 12:01:08;;;;;;;3.25;2.05;;;14.30;99.90;;;;;;5006495;28;20034;-73
2021/05/12 12:03:35;;;;;;;2.78;1.70;;;14.30;99.90;;;;;;5024131;28;20030;-73
2021/05/12 12:06:03;;;;;;;4.43;1.80;;;14.40;99.90;;;;;;5005860;28;20049;-73
2021/05/12 12:08:29;;;;;;;2.70;2.00;;;14.50;99.90;;;;;;5003337;28;20402;-73
2021/05/12 12:11:30;;;;;;;3.33;1.77;;;14.40;99.90;;;;;;5010631;28;20371;-73
2021/05/12 12:13:59;;;;;;;3.92;1.55;;;14.30;99.90;;;;;;4990481;28;20402;-74
2021/05/12 12:16:24;;;;;;;5.03;1.75;;;14.40;99.90;;;;;;5006707;28;20049;-74
2021/05/12 12:18:51;;;;;;;3.80;1.60;;;14.50;99.90;;;;;;5005465;28;20033;-73
2021/05/12 12:21:26;;;;;;;3.00;1.67;;;14.50;99.90;;;;;;4999290;28;20561;-73
2021/05/12 12:23:52;;;;;;;4.35;1.88;;;14.40;99.90;;;;;;4995102;28;20069;-74
2021/05/12 12:26:20;;;;;;;3.60;1.60;;;14.40;99.90;;;;;;5005849;28;20046;-73
2021/05/12 12:28:52;;;;;;;4.72;1.73;;;14.40;99.90;;;;;;5015088;28;20025;-73
2021/05/12 12:31:23;;;;;;;3.70;2.00;;;14.60;99.90;;;;;;4995979;28;20026;-74
2021/05/12 12:34:23;;;;;;;5.65;2.00;;;14.70;99.90;;;;;;4994565;28;20053;-73
2021/05/12 12:37:01;;;;;;;5.35;2.17;;;14.70;99.90;;;;;;4986551;28;20026;-73
2021/05/12 12:39:41;;;;;;;6.05;1.85;;;14.80;99.90;;;;;;4993933;28;20032;-74
2021/05/12 12:42:08;;;;;;;4.10;2.00;;;14.90;99.90;;;;;;5015329;28;20464;-73
2021/05/12 12:44:35;;;;;;;4.55;2.00;;;14.80;99.90;;;;;;4996219;28;20037;-75
2021/05/12 12:47:01;;;;;;;2.50;1.63;;;14.70;99.90;;;;;;4993830;28;20034;-73
2021/05/12 12:49:37;;;;;;;4.40;2.40;;;14.50;99.90;;;;;;4990780;28;20374;-73
2021/05/12 12:52:35;;;;;;;4.00;1.83;;;14.70;99.90;;;;;;5004190;28;20138;-73
2021/05/12 12:55:13;;;;;;;7.53;2.08;;;14.70;99.90;;;;;;4994603;28;20321;-74
2021/05/12 12:57:43;;;;;;;5.22;2.10;;;14.70;99.90;;;;;;4994045;28;20058;-72
2021/05/12 13:00:11;;;;;;;3.67;2.05;;;14.50;99.90;;;;;;4994905;28;20298;-72
2021/05/12 13:02:52;;;;;;;2.90;2.58;;;14.30;99.90;;;;;;5017959;23;20066;-76
2021/05/12 13:05:19;;;;;;;3.88;2.08;;;14.40;99.90;;;;;;4980757;28;20066;-77
2021/05/12 13:07:47;;;;;;;5.80;2.00;;;14.80;99.90;;;;;;4982480;28;20023;-77
2021/05/12 13:10:22;;;;;;;2.30;1.85;;;14.60;99.90;;;;;;4981153;28;20050;-77